Agua Dulce, Texas
Current Conditions -  °F | °C
As of 2:53 PM on Thursday 23 Oct 2014 (Local Time) from KALI Reporting Station
Clear Clear  
Wind Chill: 85°   Ceiling: Unl
Heat Index: 85°   Visibility: 10mi
Dew Point: 58°   Wind: 3mph
Humidity: 40%   Direction: NA
Pressure: 30.05"   Gusts: NA
Location:  27.78°N, 97.91°W
Report Text: KALI 231953Z AUTO VRB03KT 10SM CLR 29/14 A3005 RMK AO2 SLP172 T02940144
Loading
Personal Weather Stations






























Interactive Weather Map
Tropical Storm Tracking
New forecast layout! Learn more

10-Day Weather Forecast

Advertisements
Track Severe Weather on mobile